Time;durP1;ratioP1;P1;durP2;ratioP2;P2;SDS_P1;SDS_P2;PMS_P1;PMS_P2;Temp;Humidity;BMP_temperature;BMP_pressure;BME280_temperature;BME280_humidity;BME280_pressure;Samples;Min_cycle;Max_cycle;Signal;HPM_P1;HPM_P2
2021/01/03 00:01:42;;;;;;;81.88;38.90;;;3.60;99.90;;;;;;5074134;28;20025;-75
2021/01/03 00:04:08;;;;;;;83.88;39.58;;;3.60;99.90;;;;;;5074132;28;20078;-75
2021/01/03 00:06:33;;;;;;;86.35;41.30;;;3.60;99.90;;;;;;5074142;28;20107;-75
2021/01/03 00:08:59;;;;;;;83.20;39.60;;;3.60;99.90;;;;;;5073584;28;20149;-75
2021/01/03 00:11:25;;;;;;;87.25;40.33;;;3.60;99.90;;;;;;5074102;28;20078;-74
2021/01/03 00:13:50;;;;;;;78.82;38.10;;;3.60;99.90;;;;;;5074052;28;20037;-74
2021/01/03 00:16:16;;;;;;;85.25;40.05;;;3.60;99.90;;;;;;5073505;28;20024;-75
2021/01/03 00:18:41;;;;;;;83.88;39.92;;;3.60;99.90;;;;;;5073467;28;20535;-75
2021/01/03 00:21:09;;;;;;;83.18;38.17;;;3.60;99.90;;;;;;5073205;28;20083;-75
2021/01/03 00:23:34;;;;;;;87.53;39.67;;;3.60;99.90;;;;;;5073992;28;20020;-75
2021/01/03 00:26:00;;;;;;;77.05;36.05;;;3.60;99.90;;;;;;5072761;28;20035;-75
2021/01/03 00:28:25;;;;;;;80.35;38.05;;;3.60;99.90;;;;;;5073642;28;20029;-75
2021/01/03 00:30:51;;;;;;;73.78;36.50;;;3.50;99.90;;;;;;5073898;28;20458;-75
2021/01/03 00:33:16;;;;;;;74.05;38.22;;;3.50;99.90;;;;;;5073884;28;20024;-75
2021/01/03 00:35:42;;;;;;;79.10;38.00;;;3.50;99.90;;;;;;5073885;28;20028;-75
2021/01/03 00:38:11;;;;;;;72.75;36.15;;;3.50;99.90;;;;;;5073812;28;20370;-75
2021/01/03 00:40:37;;;;;;;74.68;34.83;;;3.50;99.90;;;;;;5073830;28;20462;-75
2021/01/03 00:43:04;;;;;;;74.90;37.38;;;3.40;99.90;;;;;;5073526;28;20082;-75
2021/01/03 00:45:30;;;;;;;78.30;37.10;;;3.40;99.90;;;;;;5073727;28;20014;-75
2021/01/03 00:47:58;;;;;;;79.55;38.80;;;3.40;99.90;;;;;;5072595;28;20032;-75
2021/01/03 00:50:24;;;;;;;80.07;38.25;;;3.40;99.90;;;;;;5073729;28;20017;-75
2021/01/03 00:52:50;;;;;;;81.30;38.40;;;3.50;99.90;;;;;;5073676;28;20366;-75
2021/01/03 00:55:16;;;;;;;86.28;40.35;;;3.40;99.90;;;;;;5073653;28;20040;-75
2021/01/03 00:57:41;;;;;;;85.38;40.05;;;3.40;99.90;;;;;;5073627;28;20047;-75
2021/01/03 01:00:14;;;;;;;88.75;40.67;;;3.40;99.90;;;;;;5073604;28;20033;-75
2021/01/03 01:02:39;;;;;;;90.20;41.67;;;3.50;99.90;;;;;;5073007;28;20035;-75
2021/01/03 01:05:05;;;;;;;85.20;40.05;;;3.40;99.90;;;;;;5077147;28;20029;-75
2021/01/03 01:07:31;;;;;;;88.85;39.65;;;3.40;99.90;;;;;;5077181;28;20056;-75
2021/01/03 01:09:57;;;;;;;85.97;40.45;;;3.50;99.90;;;;;;5077350;28;20099;-75
2021/01/03 01:12:22;;;;;;;86.00;39.47;;;3.40;99.90;;;;;;5075508;28;20031;-74
2021/01/03 01:14:48;;;;;;;85.07;38.90;;;3.40;99.90;;;;;;5075670;28;20032;-75
2021/01/03 01:17:14;;;;;;;81.00;39.63;;;3.40;99.90;;;;;;5076984;28;20404;-75
2021/01/03 01:19:39;;;;;;;84.13;38.58;;;3.40;99.90;;;;;;5075990;28;20078;-75
2021/01/03 01:22:05;;;;;;;80.90;38.17;;;3.40;99.90;;;;;;5076349;28;20386;-75
2021/01/03 01:24:30;;;;;;;77.88;35.97;;;3.40;99.90;;;;;;5077097;28;20374;-75
2021/01/03 01:26:56;;;;;;;74.50;36.75;;;3.40;99.90;;;;;;5077074;28;20082;-75
2021/01/03 01:29:22;;;;;;;68.47;33.10;;;3.50;99.90;;;;;;5077007;28;20028;-74
2021/01/03 01:31:47;;;;;;;78.10;36.35;;;3.50;99.90;;;;;;5076991;28;20032;-75
2021/01/03 01:34:13;;;;;;;71.40;34.70;;;3.40;99.90;;;;;;5076950;28;20033;-75
2021/01/03 01:36:38;;;;;;;77.82;36.38;;;3.40;99.90;;;;;;5076882;28;20051;-75
2021/01/03 01:39:04;;;;;;;74.88;35.60;;;3.40;99.90;;;;;;5076863;28;20035;-75
2021/01/03 01:41:30;;;;;;;79.18;35.05;;;3.30;99.90;;;;;;5076716;28;20103;-75
2021/01/03 01:43:55;;;;;;;70.10;33.15;;;3.40;99.90;;;;;;5076471;28;20024;-75
2021/01/03 01:46:31;;;;;;;68.18;34.00;;;3.40;99.90;;;;;;5076712;28;20424;-75
2021/01/03 01:48:58;;;;;;;70.10;32.95;;;3.50;99.90;;;;;;5076386;28;20094;-75
2021/01/03 01:51:28;;;;;;;73.07;33.05;;;3.50;99.90;;;;;;5076068;28;20036;-75
2021/01/03 01:54:05;;;;;;;69.60;34.13;;;3.40;99.90;;;;;;5076577;28;20024;-75
2021/01/03 01:56:56;;;;;;;64.47;30.63;;;3.40;99.90;;;;;;5076245;28;20078;-75
2021/01/03 02:00:02;;;;;;;68.40;32.25;;;3.40;99.90;;;;;;5076418;28;20024;-75
2021/01/03 02:02:35;;;;;;;74.00;32.80;;;3.40;99.90;;;;;;5075597;28;20026;-76
2021/01/03 02:05:11;;;;;;;74.07;33.78;;;3.40;99.90;;;;;;5074940;28;20028;-75
2021/01/03 02:07:48;;;;;;;69.20;33.03;;;3.40;99.90;;;;;;5076032;28;20033;-75
2021/01/03 02:10:25;;;;;;;65.03;33.28;;;3.40;99.90;;;;;;5076262;28;20086;-75
2021/01/03 02:13:07;;;;;;;70.28;33.00;;;3.40;99.90;;;;;;5076248;28;20025;-75
2021/01/03 02:15:34;;;;;;;74.13;35.15;;;3.40;99.90;;;;;;5075308;28;20070;-75
2021/01/03 02:18:03;;;;;;;77.35;36.70;;;3.30;99.90;;;;;;5075577;28;20420;-75
2021/01/03 02:20:38;;;;;;;77.40;36.42;;;3.30;99.90;;;;;;5075817;28;20047;-75
2021/01/03 02:23:07;;;;;;;70.80;34.25;;;3.40;99.90;;;;;;5075968;28;20471;-75
2021/01/03 02:25:33;;;;;;;75.28;34.33;;;3.30;99.90;;;;;;5074509;28;20029;-75
2021/01/03 02:28:17;;;;;;;67.28;32.03;;;3.40;99.90;;;;;;5075949;28;20017;-75
2021/01/03 02:30:48;;;;;;;68.03;29.85;;;3.40;99.90;;;;;;5075870;28;20017;-75
2021/01/03 02:33:24;;;;;;;58.58;28.02;;;3.40;99.90;;;;;;5075564;28;20032;-75
2021/01/03 02:35:56;;;;;;;62.38;29.45;;;3.50;99.90;;;;;;5075525;28;20055;-75
2021/01/03 02:38:25;;;;;;;66.68;31.25;;;3.40;99.90;;;;;;5075731;28;20044;-75
2021/01/03 02:40:50;;;;;;;61.00;29.05;;;3.40;99.90;;;;;;5073804;28;20123;-75
2021/01/03 02:43:16;;;;;;;59.53;29.77;;;3.40;99.90;;;;;;5075316;28;20091;-75
2021/01/03 02:45:42;;;;;;;66.63;30.38;;;3.40;99.90;;;;;;5075566;28;20021;-75
2021/01/03 02:48:13;;;;;;;64.97;30.85;;;3.40;99.90;;;;;;5075533;28;20035;-75
2021/01/03 02:50:39;;;;;;;61.53;30.25;;;3.40;99.90;;;;;;5074920;28;20359;-75
2021/01/03 02:53:05;;;;;;;66.13;30.40;;;3.40;99.90;;;;;;5074873;28;20036;-75
2021/01/03 02:55:30;;;;;;;62.60;29.88;;;3.40;99.90;;;;;;5075365;28;20107;-75
2021/01/03 02:57:56;;;;;;;63.15;30.25;;;3.40;99.90;;;;;;5075315;28;20082;-76
2021/01/03 03:00:28;;;;;;;62.22;28.50;;;3.40;99.90;;;;;;5075289;28;20028;-75
2021/01/03 03:02:54;;;;;;;63.95;29.83;;;3.50;99.90;;;;;;5073361;28;20465;-74
2021/01/03 03:05:20;;;;;;;66.53;31.75;;;3.40;99.90;;;;;;5074881;28;20462;-75
2021/01/03 03:07:47;;;;;;;76.18;33.70;;;3.40;99.90;;;;;;5075116;28;20024;-74
2021/01/03 03:10:13;;;;;;;74.22;34.25;;;3.40;99.90;;;;;;5074799;28;20470;-76
2021/01/03 03:12:38;;;;;;;64.65;31.55;;;3.40;99.90;;;;;;5075042;28;20035;-76
2021/01/03 03:15:06;;;;;;;73.00;33.60;;;3.40;99.90;;;;;;5074958;28;20028;-75
2021/01/03 03:17:32;;;;;;;70.22;32.70;;;3.40;99.90;;;;;;5074948;28;20021;-76
2021/01/03 03:19:57;;;;;;;75.60;35.08;;;3.40;99.90;;;;;;5074651;28;20036;-75
2021/01/03 03:22:23;;;;;;;69.93;32.17;;;3.40;99.90;;;;;;5073341;28;20098;-76
2021/01/03 03:24:48;;;;;;;69.45;32.90;;;3.40;99.90;;;;;;5074822;28;20090;-75
2021/01/03 03:27:14;;;;;;;65.93;30.40;;;3.40;99.90;;;;;;5074095;28;20060;-75
2021/01/03 03:29:40;;;;;;;68.40;32.30;;;3.40;99.90;;;;;;5074700;28;20021;-75
2021/01/03 03:32:05;;;;;;;63.72;30.25;;;3.40;99.90;;;;;;5074689;28;20036;-75
2021/01/03 03:34:31;;;;;;;65.60;29.70;;;3.40;99.90;;;;;;5074413;28;20035;-75
2021/01/03 03:36:57;;;;;;;62.47;30.17;;;3.40;99.90;;;;;;5074578;28;20028;-75
2021/01/03 03:39:24;;;;;;;61.50;29.13;;;3.40;99.90;;;;;;5074553;28;20032;-73
2021/01/03 03:41:53;;;;;;;57.97;29.40;;;3.40;99.90;;;;;;5074119;28;20416;-74
2021/01/03 03:44:19;;;;;;;60.53;28.60;;;3.40;99.90;;;;;;5074460;28;20013;-75
2021/01/03 03:46:53;;;;;;;51.40;26.73;;;3.40;99.90;;;;;;5073909;28;20035;-76
2021/01/03 03:49:19;;;;;;;50.25;25.20;;;3.40;99.90;;;;;;5074156;28;20053;-75
2021/01/03 03:51:44;;;;;;;52.78;24.90;;;3.40;99.90;;;;;;5074366;28;20541;-73
2021/01/03 03:54:10;;;;;;;50.60;25.58;;;3.40;99.90;;;;;;5074079;28;20028;-75
2021/01/03 03:56:35;;;;;;;49.63;24.27;;;3.40;99.90;;;;;;5074309;28;20074;-73
2021/01/03 03:59:01;;;;;;;49.63;24.30;;;3.40;99.90;;;;;;5074014;28;20055;-73
2021/01/03 04:01:36;;;;;;;47.95;23.75;;;3.40;99.90;;;;;;5074170;28;20029;-75
2021/01/03 04:04:03;;;;;;;44.17;22.02;;;3.40;99.90;;;;;;5073950;28;20017;-76
2021/01/03 04:06:28;;;;;;;44.83;21.77;;;3.40;99.90;;;;;;5074202;28;20012;-75
2021/01/03 04:08:54;;;;;;;43.88;22.20;;;3.40;99.90;;;;;;5074165;28;20374;-75
2021/01/03 04:11:19;;;;;;;40.78;21.65;;;3.40;99.90;;;;;;5074148;28;20458;-75
2021/01/03 04:13:45;;;;;;;42.03;20.33;;;3.50;99.90;;;;;;5073835;28;20461;-75
2021/01/03 04:16:10;;;;;;;38.53;19.10;;;3.40;99.90;;;;;;5073807;28;20024;-75
2021/01/03 04:18:36;;;;;;;39.08;19.50;;;3.50;99.90;;;;;;5074026;28;20527;-75
2021/01/03 04:21:01;;;;;;;37.03;19.33;;;3.40;99.90;;;;;;5073504;28;20084;-75
2021/01/03 04:23:27;;;;;;;34.78;18.35;;;3.50;99.90;;;;;;5073733;28;20021;-75
2021/01/03 04:25:52;;;;;;;40.90;18.15;;;3.50;99.90;;;;;;5073718;28;20052;-75
2021/01/03 04:28:18;;;;;;;33.53;16.55;;;3.50;99.90;;;;;;5073693;28;20044;-75
2021/01/03 04:30:44;;;;;;;40.15;17.92;;;3.50;99.90;;;;;;5073920;28;20509;-75
2021/01/03 04:33:09;;;;;;;33.05;16.83;;;3.50;99.90;;;;;;5073896;28;20115;-75
2021/01/03 04:35:35;;;;;;;36.45;16.90;;;3.50;99.90;;;;;;5073870;28;20099;-76
2021/01/03 04:38:00;;;;;;;32.70;16.48;;;3.50;99.90;;;;;;5075556;28;20036;-75
2021/01/03 04:40:29;;;;;;;30.58;16.65;;;3.50;99.90;;;;;;5077970;28;20056;-75
2021/01/03 04:43:00;;;;;;;28.17;15.23;;;3.50;99.90;;;;;;5077303;28;20489;-75
2021/01/03 04:45:31;;;;;;;28.58;14.48;;;3.50;99.90;;;;;;5076758;28;20029;-74
2021/01/03 04:48:03;;;;;;;25.90;14.38;;;3.60;99.90;;;;;;5077855;28;20012;-75
2021/01/03 04:50:52;;;;;;;31.13;15.63;;;3.50;99.90;;;;;;5077548;28;20025;-75
2021/01/03 04:53:38;;;;;;;30.17;15.80;;;3.50;99.90;;;;;;5077263;28;20025;-75
2021/01/03 04:56:37;;;;;;;28.65;15.27;;;3.50;99.90;;;;;;5077688;28;20501;-75
2021/01/03 05:04:53;;;;;;;27.27;13.82;;;3.50;99.90;;;;;;5091882;28;20386;-74
2021/01/03 05:07:27;;;;;;;27.08;13.70;;;3.40;99.90;;;;;;5091131;28;20058;-73
2021/01/03 05:10:00;;;;;;;28.13;15.15;;;3.40;99.90;;;;;;5091541;28;20031;-74
2021/01/03 05:12:30;;;;;;;;;;;3.50;99.90;;;;;;5091948;28;20028;-74
2021/01/03 05:15:06;;;;;;;29.35;15.13;;;3.40;99.90;;;;;;5091505;28;19999;-76
2021/01/03 05:17:31;;;;;;;28.90;14.30;;;3.40;99.90;;;;;;5089968;28;20419;-74
2021/01/03 05:19:57;;;;;;;30.75;14.32;;;3.40;99.90;;;;;;5091359;28;20029;-76
2021/01/03 05:22:28;;;;;;;27.45;15.15;;;3.40;99.90;;;;;;5091243;28;20081;-75
2021/01/03 05:24:56;;;;;;;28.52;15.25;;;3.40;99.90;;;;;;5091290;28;20449;-73
2021/01/03 05:27:22;;;;;;;30.65;13.88;;;3.30;99.90;;;;;;5091208;28;20441;-75
2021/01/03 05:29:47;;;;;;;30.42;14.77;;;3.40;99.90;;;;;;5090621;28;20032;-75
2021/01/03 05:32:28;;;;;;;27.08;14.18;;;3.40;99.90;;;;;;5091128;28;20082;-75
2021/01/03 05:34:54;;;;;;;27.08;14.13;;;3.40;99.90;;;;;;5091091;28;20016;-75
2021/01/03 05:37:24;;;;;;;29.85;15.30;;;3.40;99.90;;;;;;5091058;28;20024;-75
2021/01/03 05:39:50;;;;;;;25.25;12.90;;;3.40;99.90;;;;;;5091017;28;20024;-75
2021/01/03 05:48:02;;;;;;;26.85;13.35;;;3.30;99.90;;;;;;5112003;27;20355;-73
2021/01/03 05:50:32;;;;;;;30.95;13.98;;;3.30;99.90;;;;;;5111972;28;20028;-73
2021/01/03 05:53:12;;;;;;;27.80;13.68;;;3.30;99.90;;;;;;5111922;28;20027;-73
2021/01/03 05:55:38;;;;;;;30.02;13.57;;;3.30;99.90;;;;;;5111860;28;20052;-73
2021/01/03 06:00:49;;;;;;;24.00;12.57;;;3.30;99.90;;;;;;5112327;27;20347;-74
2021/01/03 06:03:33;;;;;;;22.13;11.85;;;3.30;99.90;;;;;;5111459;28;20441;-73
2021/01/03 06:06:18;;;;;;;20.73;11.57;;;3.40;99.90;;;;;;5111930;28;20019;-76
2021/01/03 06:08:47;;;;;;;20.00;11.02;;;3.40;99.90;;;;;;5111326;28;20026;-76
2021/01/03 06:11:17;;;;;;;17.92;9.88;;;3.40;99.90;;;;;;5111284;28;20028;-73
2021/01/03 06:13:52;;;;;;;20.08;10.55;;;3.40;99.90;;;;;;5110307;28;20081;-75
2021/01/03 06:16:23;;;;;;;17.70;9.57;;;3.40;99.90;;;;;;5111466;28;20015;-75
2021/01/03 06:18:59;;;;;;;17.48;10.15;;;3.40;99.90;;;;;;5111298;28;20064;-76
2021/01/03 06:21:28;;;;;;;18.77;9.82;;;3.40;99.90;;;;;;5111358;28;20016;-75
2021/01/03 06:24:06;;;;;;;18.65;9.35;;;3.40;99.90;;;;;;5111604;28;20016;-76
2021/01/03 06:26:36;;;;;;;15.25;9.43;;;3.40;99.90;;;;;;5111514;28;20528;-76
2021/01/03 06:29:13;;;;;;;14.82;8.68;;;3.40;99.90;;;;;;5111172;28;20027;-75
2021/01/03 06:31:47;;;;;;;16.92;8.98;;;3.40;99.90;;;;;;5111423;28;20024;-76
2021/01/03 06:34:22;;;;;;;15.05;8.95;;;3.40;99.90;;;;;;5111060;28;20034;-75
2021/01/03 06:37:10;;;;;;;14.00;8.10;;;3.40;99.90;;;;;;5111347;28;20044;-74
2021/01/03 06:40:15;;;;;;;14.40;8.35;;;3.50;99.90;;;;;;5111233;28;20506;-74
2021/01/03 06:48:56;;;;;;;12.27;7.50;;;3.50;99.90;;;;;;5112286;27;20351;-74
2021/01/03 06:52:01;;;;;;;11.75;7.45;;;3.50;99.90;;;;;;5111212;28;20024;-75
2021/01/03 06:55:02;;;;;;;11.35;7.60;;;3.50;99.90;;;;;;5111139;28;20465;-76
2021/01/03 06:57:51;;;;;;;12.88;6.65;;;3.50;99.90;;;;;;5111899;28;20056;-75
2021/01/03 07:00:44;;;;;;;10.07;6.70;;;3.60;99.90;;;;;;5111474;28;20028;-76
2021/01/03 07:03:18;;;;;;;13.93;7.57;;;3.50;99.90;;;;;;5111083;28;20031;-75
2021/01/03 07:06:03;;;;;;;;;;;3.50;99.90;;;;;;5112145;28;20520;-73
2021/01/03 07:08:35;;;;;;;11.13;6.60;;;3.50;99.90;;;;;;5111005;28;19912;-76
2021/01/03 07:11:01;;;;;;;11.10;7.15;;;3.60;99.90;;;;;;5111334;28;20023;-76
2021/01/03 07:16:10;;;;;;;12.45;7.55;;;3.50;99.90;;;;;;5112278;27;20347;-75
2021/01/03 07:18:44;;;;;;;10.35;6.78;;;3.60;99.90;;;;;;5111710;28;20102;-75
2021/01/03 07:23:50;;;;;;;11.13;6.53;;;3.50;99.90;;;;;;5091938;27;20149;-75
2021/01/03 07:26:32;;;;;;;11.10;6.55;;;3.50;99.90;;;;;;5091623;28;20070;-74
2021/01/03 07:29:17;;;;;;;14.45;7.15;;;3.50;99.90;;;;;;5091567;28;20457;-74
2021/01/03 07:31:59;;;;;;;11.27;7.20;;;3.50;99.90;;;;;;5091480;28;20082;-74
2021/01/03 07:34:31;;;;;;;10.65;6.63;;;3.50;99.90;;;;;;5091432;28;20552;-74
2021/01/03 07:37:13;;;;;;;11.05;6.72;;;3.50;99.90;;;;;;5091418;28;20031;-74
2021/01/03 07:40:03;;;;;;;10.70;6.35;;;3.50;99.90;;;;;;5091360;28;20052;-76
2021/01/03 07:42:33;;;;;;;8.18;5.90;;;3.50;99.90;;;;;;5090029;28;20440;-74
2021/01/03 07:45:01;;;;;;;10.90;6.05;;;3.50;99.90;;;;;;5091271;28;20419;-74
2021/01/03 07:50:26;;;;;;;9.15;6.00;;;3.50;99.90;;;;;;5091893;28;20348;-76
2021/01/03 07:52:54;;;;;;;10.88;5.35;;;3.50;99.90;;;;;;5091598;28;20059;-76
2021/01/03 07:58:03;;;;;;;10.50;6.45;;;3.50;99.90;;;;;;5112282;27;20347;-74
2021/01/03 08:00:33;;;;;;;7.60;5.13;;;3.50;99.90;;;;;;5111952;28;20028;-76
2021/01/03 08:03:05;;;;;;;10.50;5.53;;;3.50;99.90;;;;;;5111618;28;20024;-76
2021/01/03 08:05:32;;;;;;;9.25;6.10;;;3.40;99.90;;;;;;5111833;28;20395;-76
2021/01/03 08:08:22;;;;;;;10.38;5.97;;;3.50;99.90;;;;;;5111804;28;20081;-76
2021/01/03 08:10:50;;;;;;;9.73;6.05;;;3.50;99.90;;;;;;5109854;28;20073;-76
2021/01/03 08:13:24;;;;;;;8.88;5.82;;;3.50;99.90;;;;;;5111133;28;20019;-76
2021/01/03 08:15:55;;;;;;;9.98;5.78;;;3.50;99.90;;;;;;5111309;28;20016;-76
2021/01/03 08:18:21;;;;;;;10.20;6.13;;;3.50;99.90;;;;;;5111614;28;20089;-76
2021/01/03 08:20:50;;;;;;;9.73;6.03;;;3.50;99.90;;;;;;5110421;28;20020;-76
2021/01/03 08:23:27;;;;;;;10.85;6.50;;;3.50;99.90;;;;;;5111509;28;20410;-76
2021/01/03 08:26:16;;;;;;;10.25;6.53;;;3.50;99.90;;;;;;5111461;28;20026;-75
2021/01/03 08:28:56;;;;;;;9.68;6.30;;;3.50;99.90;;;;;;5109544;28;20127;-75
2021/01/03 08:31:22;;;;;;;10.73;6.05;;;3.50;99.90;;;;;;5111378;28;20027;-73
2021/01/03 08:33:50;;;;;;;10.25;6.47;;;3.50;99.90;;;;;;5110003;28;20020;-73
2021/01/03 08:36:28;;;;;;;10.80;6.50;;;3.50;99.90;;;;;;5111168;28;20020;-76
2021/01/03 08:39:03;;;;;;;12.10;7.50;;;3.60;99.90;;;;;;5110955;28;20019;-73
2021/01/03 08:41:33;;;;;;;10.55;6.80;;;3.50;99.90;;;;;;5111118;28;20457;-74
2021/01/03 08:43:58;;;;;;;11.60;7.10;;;3.50;99.90;;;;;;5111047;28;20104;-76
2021/01/03 08:46:33;;;;;;;9.43;6.50;;;3.50;99.90;;;;;;5111072;28;20028;-73
2021/01/03 08:49:05;;;;;;;9.93;6.05;;;3.60;99.90;;;;;;5110739;28;20024;-73
2021/01/03 08:51:31;;;;;;;9.88;6.00;;;3.60;99.90;;;;;;5110895;28;20108;-74
2021/01/03 08:54:01;;;;;;;9.50;6.03;;;3.60;99.90;;;;;;5109448;28;20024;-74
2021/01/03 08:56:35;;;;;;;9.95;6.13;;;3.60;99.90;;;;;;5109118;28;20093;-74
2021/01/03 08:59:01;;;;;;;10.05;6.38;;;3.60;99.90;;;;;;5110895;28;20102;-74
2021/01/03 09:01:33;;;;;;;11.35;6.53;;;3.60;99.90;;;;;;5110814;28;20027;-74
2021/01/03 09:04:04;;;;;;;12.00;6.70;;;3.60;99.90;;;;;;5110746;28;20058;-74
2021/01/03 09:06:31;;;;;;;11.45;6.60;;;3.60;99.90;;;;;;5109012;28;20051;-74
2021/01/03 09:09:06;;;;;;;9.00;5.97;;;3.60;99.90;;;;;;5099417;28;20465;-74
2021/01/03 09:11:35;;;;;;;11.43;6.88;;;3.60;99.90;;;;;;5097015;28;20051;-74
2021/01/03 09:14:20;;;;;;;11.13;7.45;;;3.60;99.90;;;;;;5097015;28;20024;-74
2021/01/03 09:17:12;;;;;;;13.35;7.07;;;3.60;99.90;;;;;;5096820;28;20028;-75
2021/01/03 09:20:04;;;;;;;10.73;6.50;;;3.70;99.90;;;;;;5095135;28;20372;-76
2021/01/03 09:22:33;;;;;;;11.27;6.78;;;3.70;99.90;;;;;;5096125;28;20032;-76
2021/01/03 09:25:07;;;;;;;12.35;7.55;;;3.70;99.90;;;;;;5096779;28;20016;-76
2021/01/03 09:27:34;;;;;;;11.15;6.50;;;3.80;99.90;;;;;;5096710;28;20068;-76
2021/01/03 09:30:22;;;;;;;12.00;6.45;;;3.80;99.90;;;;;;5096659;28;20488;-75
2021/01/03 09:32:52;;;;;;;8.95;6.28;;;3.80;99.90;;;;;;5096610;28;20173;-76
2021/01/03 09:35:47;;;;;;;9.63;6.72;;;3.80;99.90;;;;;;5096575;28;20031;-76
2021/01/03 09:38:51;;;;;;;11.15;6.45;;;3.80;99.90;;;;;;5095841;28;20047;-76
2021/01/03 09:41:26;;;;;;;;;;;3.80;99.90;;;;;;5096944;28;20024;-76
2021/01/03 09:44:31;;;;;;;8.30;5.78;;;3.80;99.90;;;;;;5096152;28;19931;-76
2021/01/03 09:47:01;;;;;;;11.13;6.45;;;3.80;99.90;;;;;;5095683;28;20055;-75
2021/01/03 09:49:46;;;;;;;9.45;6.13;;;3.80;99.90;;;;;;5096340;28;20043;-76
2021/01/03 09:52:22;;;;;;;8.32;6.03;;;3.80;99.90;;;;;;5096236;28;20024;-75
2021/01/03 09:57:47;;;;;;;8.60;5.90;;;3.90;99.90;;;;;;5112261;27;20423;-70
2021/01/03 10:00:21;;;;;;;7.50;5.05;;;3.90;99.90;;;;;;5111958;28;20077;-70
2021/01/03 10:02:47;;;;;;;7.72;5.32;;;3.90;99.90;;;;;;5111901;28;20020;-70
2021/01/03 10:05:30;;;;;;;9.77;5.65;;;3.90;99.90;;;;;;5110689;28;20373;-70
2021/01/03 10:08:01;;;;;;;8.38;5.45;;;3.90;99.90;;;;;;5111840;28;20077;-70
2021/01/03 10:10:50;;;;;;;9.57;5.97;;;3.90;99.90;;;;;;5111718;28;20156;-71
2021/01/03 10:13:18;;;;;;;8.50;5.80;;;3.90;99.90;;;;;;5109790;28;20076;-70
2021/01/03 10:15:49;;;;;;;11.00;5.85;;;3.90;99.90;;;;;;5111563;28;20403;-71
2021/01/03 10:18:27;;;;;;;9.48;5.80;;;3.90;99.90;;;;;;5111575;28;20368;-70
2021/01/03 10:20:52;;;;;;;10.13;6.10;;;3.90;99.90;;;;;;5111446;28;20031;-71
2021/01/03 10:23:39;;;;;;;10.50;6.60;;;3.90;99.90;;;;;;5109593;28;20020;-71
2021/01/03 10:26:19;;;;;;;10.50;6.35;;;3.90;99.90;;;;;;5111327;28;20020;-70
2021/01/03 10:28:45;;;;;;;12.32;7.18;;;3.90;99.90;;;;;;5109983;28;20024;-70
2021/01/03 10:31:10;;;;;;;10.45;6.45;;;3.90;99.90;;;;;;5110150;28;20449;-71
2021/01/03 10:33:36;;;;;;;11.20;7.60;;;3.90;99.90;;;;;;5111296;28;20035;-70
2021/01/03 10:36:01;;;;;;;11.30;7.25;;;3.90;99.90;;;;;;5109712;28;20031;-70
2021/01/03 10:38:27;;;;;;;11.40;7.53;;;3.90;99.90;;;;;;5110946;28;20024;-70
2021/01/03 10:40:53;;;;;;;12.73;7.35;;;3.90;99.90;;;;;;5109723;28;20016;-70
2021/01/03 10:43:18;;;;;;;12.63;7.68;;;3.90;99.90;;;;;;5110579;28;20020;-71
2021/01/03 10:45:49;;;;;;;12.80;7.25;;;3.90;99.90;;;;;;5092333;28;20020;-70
2021/01/03 10:48:15;;;;;;;10.35;7.03;;;3.90;99.90;;;;;;5109860;28;20445;-70
2021/01/03 10:50:41;;;;;;;12.23;7.50;;;3.90;99.90;;;;;;5110979;28;20040;-70
2021/01/03 10:53:07;;;;;;;12.05;8.13;;;3.90;99.90;;;;;;5109110;28;20019;-70
2021/01/03 10:55:32;;;;;;;12.85;7.72;;;3.90;99.90;;;;;;5092287;28;20055;-71
2021/01/03 10:57:58;;;;;;;11.07;7.25;;;3.90;99.90;;;;;;5110535;28;20024;-71
2021/01/03 11:00:24;;;;;;;12.25;8.38;;;3.90;99.90;;;;;;5110782;28;20433;-71
2021/01/03 11:02:50;;;;;;;12.70;7.68;;;4.00;99.90;;;;;;5108957;28;20073;-71
2021/01/03 11:05:18;;;;;;;13.77;8.10;;;4.00;99.90;;;;;;5110709;28;20054;-70
2021/01/03 11:07:43;;;;;;;13.52;8.10;;;3.90;99.90;;;;;;5102499;28;20020;-70
2021/01/03 11:10:12;;;;;;;13.30;7.70;;;3.90;99.90;;;;;;5095764;28;20031;-70
2021/01/03 11:12:37;;;;;;;12.35;7.90;;;4.00;99.90;;;;;;5096986;28;20024;-70
2021/01/03 11:15:05;;;;;;;15.05;8.20;;;3.90;99.90;;;;;;5095474;28;20024;-71
2021/01/03 11:17:31;;;;;;;14.52;8.73;;;3.90;99.90;;;;;;5097032;28;20089;-70
2021/01/03 11:19:57;;;;;;;11.98;7.90;;;3.90;99.90;;;;;;5096137;28;20373;-71
2021/01/03 11:22:23;;;;;;;14.25;8.65;;;3.90;99.90;;;;;;5079406;28;20461;-71
2021/01/03 11:24:48;;;;;;;15.45;8.85;;;4.00;99.90;;;;;;5096908;28;20119;-70
2021/01/03 11:27:17;;;;;;;14.70;9.35;;;3.90;99.90;;;;;;5096561;28;20085;-70
2021/01/03 11:29:43;;;;;;;15.10;9.10;;;4.00;99.90;;;;;;5078162;28;20031;-71
2021/01/03 11:32:14;;;;;;;15.43;9.25;;;3.90;99.90;;;;;;5096680;28;20020;-70
2021/01/03 11:34:40;;;;;;;17.55;9.98;;;3.90;99.90;;;;;;5097405;28;20107;-70
2021/01/03 11:37:09;;;;;;;16.35;9.13;;;3.90;99.90;;;;;;5095895;28;20031;-70
2021/01/03 11:39:36;;;;;;;19.88;9.93;;;3.90;99.90;;;;;;5096482;28;20047;-70
2021/01/03 11:42:09;;;;;;;18.73;10.52;;;3.90;99.90;;;;;;5094936;28;20119;-70
2021/01/03 11:44:37;;;;;;;16.75;10.50;;;3.90;99.90;;;;;;5099607;28;20056;-71
2021/01/03 11:47:06;;;;;;;19.52;11.18;;;4.00;99.90;;;;;;5096750;28;20020;-70
2021/01/03 11:49:32;;;;;;;21.20;11.60;;;4.00;99.90;;;;;;5081280;28;20032;-70
2021/01/03 11:51:59;;;;;;;22.70;11.90;;;3.90;99.90;;;;;;5095006;28;20024;-70
2021/01/03 11:54:25;;;;;;;22.20;12.25;;;4.00;99.90;;;;;;5094909;28;20389;-70
2021/01/03 11:56:55;;;;;;;20.25;11.57;;;4.00;99.90;;;;;;5095521;28;20047;-71
2021/01/03 11:59:22;;;;;;;21.33;11.45;;;4.00;99.90;;;;;;5077400;28;20177;-71
2021/01/03 12:01:48;;;;;;;22.52;11.93;;;4.00;99.90;;;;;;5094416;28;20027;-70
2021/01/03 12:04:14;;;;;;;23.02;12.40;;;3.90;99.90;;;;;;5095522;28;20111;-70
2021/01/03 12:06:39;;;;;;;23.17;12.02;;;3.90;99.90;;;;;;5094373;28;20150;-70
2021/01/03 12:09:05;;;;;;;24.77;12.88;;;3.90;99.90;;;;;;5095781;28;20441;-70
2021/01/03 12:11:31;;;;;;;22.83;11.93;;;3.90;99.90;;;;;;5095692;28;20024;-70
2021/01/03 12:13:59;;;;;;;25.55;12.55;;;3.80;99.90;;;;;;5095744;28;20099;-70
2021/01/03 12:16:28;;;;;;;26.08;12.90;;;3.80;99.90;;;;;;5094170;28;20035;-70
2021/01/03 12:18:54;;;;;;;24.02;12.68;;;3.80;99.90;;;;;;5093524;28;20031;-70
2021/01/03 12:21:22;;;;;;;22.27;12.25;;;3.80;99.90;;;;;;5095453;28;20024;-70
2021/01/03 12:23:48;;;;;;;23.70;12.40;;;3.90;99.90;;;;;;5077194;28;20024;-70
2021/01/03 12:26:14;;;;;;;25.73;12.18;;;3.80;99.90;;;;;;5095402;28;20032;-70
2021/01/03 12:28:39;;;;;;;20.98;12.13;;;3.90;99.90;;;;;;5076765;28;20023;-70
2021/01/03 12:31:05;;;;;;;25.48;12.50;;;3.80;99.90;;;;;;5095364;28;20470;-70
2021/01/03 12:33:30;;;;;;;25.95;12.90;;;3.80;99.90;;;;;;5094160;28;20053;-70
2021/01/03 12:35:56;;;;;;;24.75;12.52;;;3.80;99.90;;;;;;5094902;28;20040;-70
2021/01/03 12:38:21;;;;;;;25.15;11.75;;;3.80;99.90;;;;;;5095295;28;20367;-70
2021/01/03 12:40:47;;;;;;;23.60;12.75;;;3.80;99.90;;;;;;5095210;28;20035;-70
2021/01/03 12:43:12;;;;;;;24.33;12.30;;;3.70;99.90;;;;;;5095159;28;20032;-71
2021/01/03 12:45:38;;;;;;;24.23;12.52;;;3.70;99.90;;;;;;5093691;28;20031;-70
2021/01/03 12:48:04;;;;;;;26.55;13.07;;;3.70;99.90;;;;;;5094829;28;20377;-70
2021/01/03 12:50:30;;;;;;;31.13;14.20;;;3.60;99.90;;;;;;5093583;28;20077;-70
2021/01/03 12:52:55;;;;;;;25.80;12.73;;;3.60;99.90;;;;;;5094997;28;20028;-70
2021/01/03 12:55:21;;;;;;;24.15;12.82;;;3.50;99.90;;;;;;5094667;28;20354;-71
2021/01/03 12:57:46;;;;;;;25.90;12.57;;;3.50;99.90;;;;;;5093389;28;20391;-70
2021/01/03 13:00:12;;;;;;;25.58;12.43;;;3.50;99.90;;;;;;5094801;28;20016;-70
2021/01/03 13:02:38;;;;;;;25.30;12.52;;;3.50;99.90;;;;;;5093587;28;20024;-70
2021/01/03 13:05:04;;;;;;;23.65;12.30;;;3.50;99.90;;;;;;5093311;28;20024;-70
2021/01/03 13:07:29;;;;;;;23.42;12.52;;;3.60;99.90;;;;;;5094791;28;20366;-70
2021/01/03 13:09:55;;;;;;;26.15;12.75;;;3.60;99.90;;;;;;5094345;28;20077;-70
2021/01/03 13:12:21;;;;;;;27.15;12.80;;;3.60;99.90;;;;;;5094422;28;20388;-70
2021/01/03 13:14:46;;;;;;;26.13;12.63;;;3.70;99.90;;;;;;5094079;28;20039;-70
2021/01/03 13:17:12;;;;;;;27.05;12.93;;;3.60;99.90;;;;;;5075994;28;20483;-70
2021/01/03 13:19:37;;;;;;;26.98;11.98;;;3.60;99.90;;;;;;5093116;28;20016;-70
2021/01/03 13:22:03;;;;;;;26.58;13.88;;;3.50;99.90;;;;;;5093869;28;20063;-70
2021/01/03 13:24:28;;;;;;;23.77;12.68;;;3.50;99.90;;;;;;5094509;28;20020;-70
2021/01/03 13:26:54;;;;;;;25.63;12.77;;;3.50;99.90;;;;;;5092959;28;20032;-70
2021/01/03 13:29:20;;;;;;;25.08;13.63;;;3.50;99.90;;;;;;5094192;28;20055;-70
2021/01/03 13:31:46;;;;;;;27.55;12.65;;;3.50;99.90;;;;;;5092925;28;20035;-70
2021/01/03 13:34:12;;;;;;;20.88;11.95;;;3.40;99.90;;;;;;5093176;28;20024;-70